sensor_id;sensor_type;location;lat;lon;timestamp;temperature;humidity
52675;DHT22;38569;52.722;6.440;2023-11-19T00:02:14;11.90;99.90
52675;DHT22;38569;52.722;6.440;2023-11-19T00:04:39;11.90;99.90
52675;DHT22;38569;52.722;6.440;2023-11-19T00:07:06;11.90;99.90
52675;DHT22;38569;52.722;6.440;2023-11-19T00:09:36;12.10;99.90
52675;DHT22;38569;52.722;6.440;2023-11-19T00:12:06;12.00;99.90
52675;DHT22;38569;52.722;6.440;2023-11-19T00:14:33;12.00;99.90
52675;DHT22;38569;52.722;6.440;2023-11-19T00:16:59;12.10;99.90
52675;DHT22;38569;52.722;6.440;2023-11-19T00:19:24;12.00;99.90
52675;DHT22;38569;52.722;6.440;2023-11-19T00:21:52;12.00;99.90
52675;DHT22;38569;52.722;6.440;2023-11-19T00:24:18;12.10;99.90
52675;DHT22;38569;52.722;6.440;2023-11-19T00:26:44;12.00;99.90
52675;DHT22;38569;52.722;6.440;2023-11-19T00:29:09;12.00;99.90
52675;DHT22;38569;52.722;6.440;2023-11-19T00:31:36;12.00;99.90
52675;DHT22;38569;52.722;6.440;2023-11-19T00:34:02;12.00;99.90
52675;DHT22;38569;52.722;6.440;2023-11-19T00:36:28;12.10;99.90
52675;DHT22;38569;52.722;6.440;2023-11-19T00:38:54;12.00;99.90
52675;DHT22;38569;52.722;6.440;2023-11-19T00:41:20;12.00;99.90
52675;DHT22;38569;52.722;6.440;2023-11-19T00:43:46;12.10;99.90
52675;DHT22;38569;52.722;6.440;2023-11-19T00:46:12;12.20;99.90
52675;DHT22;38569;52.722;6.440;2023-11-19T00:48:39;12.20;99.90
52675;DHT22;38569;52.722;6.440;2023-11-19T00:51:05;12.20;99.90
52675;DHT22;38569;52.722;6.440;2023-11-19T00:53:31;12.20;99.90
52675;DHT22;38569;52.722;6.440;2023-11-19T00:55:57;12.20;99.90
52675;DHT22;38569;52.722;6.440;2023-11-19T00:58:23;12.20;99.90
52675;DHT22;38569;52.722;6.440;2023-11-19T01:00:49;12.20;99.90
52675;DHT22;38569;52.722;6.440;2023-11-19T01:03:15;12.20;99.90
52675;DHT22;38569;52.722;6.440;2023-11-19T01:05:44;12.20;99.90
52675;DHT22;38569;52.722;6.440;2023-11-19T01:08:12;12.20;99.90
52675;DHT22;38569;52.722;6.440;2023-11-19T01:10:38;12.20;99.90
52675;DHT22;38569;52.722;6.440;2023-11-19T01:13:03;12.20;99.90
52675;DHT22;38569;52.722;6.440;2023-11-19T01:15:32;12.20;99.90
52675;DHT22;38569;52.722;6.440;2023-11-19T01:17:57;12.20;99.90
52675;DHT22;38569;52.722;6.440;2023-11-19T01:20:23;12.30;99.90
52675;DHT22;38569;52.722;6.440;2023-11-19T01:22:49;12.20;99.90
52675;DHT22;38569;52.722;6.440;2023-11-19T01:25:15;12.20;99.90
52675;DHT22;38569;52.722;6.440;2023-11-19T01:27:42;12.30;99.90
52675;DHT22;38569;52.722;6.440;2023-11-19T01:30:08;12.20;99.90
52675;DHT22;38569;52.722;6.440;2023-11-19T01:32:39;12.30;99.90
52675;DHT22;38569;52.722;6.440;2023-11-19T01:35:05;12.30;99.90
52675;DHT22;38569;52.722;6.440;2023-11-19T01:37:31;12.20;99.90
52675;DHT22;38569;52.722;6.440;2023-11-19T01:39:57;12.30;99.90
52675;DHT22;38569;52.722;6.440;2023-11-19T01:42:23;12.30;99.90
52675;DHT22;38569;52.722;6.440;2023-11-19T01:44:58;12.30;99.90
52675;DHT22;38569;52.722;6.440;2023-11-19T01:47:25;12.30;99.90
52675;DHT22;38569;52.722;6.440;2023-11-19T01:49:51;12.30;99.90
52675;DHT22;38569;52.722;6.440;2023-11-19T01:52:18;12.30;99.90
52675;DHT22;38569;52.722;6.440;2023-11-19T01:54:44;12.30;99.90
52675;DHT22;38569;52.722;6.440;2023-11-19T01:57:10;12.30;99.90
52675;DHT22;38569;52.722;6.440;2023-11-19T01:59:37;12.30;99.90
52675;DHT22;38569;52.722;6.440;2023-11-19T02:02:05;12.30;99.90
52675;DHT22;38569;52.722;6.440;2023-11-19T02:04:31;12.20;99.90
52675;DHT22;38569;52.722;6.440;2023-11-19T02:06:58;12.20;99.90
52675;DHT22;38569;52.722;6.440;2023-11-19T02:09:24;12.20;99.90
52675;DHT22;38569;52.722;6.440;2023-11-19T02:11:50;12.30;99.90
52675;DHT22;38569;52.722;6.440;2023-11-19T02:14:17;12.20;99.90
52675;DHT22;38569;52.722;6.440;2023-11-19T02:16:43;12.10;99.90
52675;DHT22;38569;52.722;6.440;2023-11-19T02:19:09;12.10;99.90
52675;DHT22;38569;52.722;6.440;2023-11-19T02:21:36;12.20;99.90
52675;DHT22;38569;52.722;6.440;2023-11-19T02:24:06;12.10;99.90
52675;DHT22;38569;52.722;6.440;2023-11-19T02:26:47;12.20;99.90
52675;DHT22;38569;52.722;6.440;2023-11-19T02:29:14;12.20;99.90
52675;DHT22;38569;52.722;6.440;2023-11-19T02:31:40;12.10;99.90
52675;DHT22;38569;52.722;6.440;2023-11-19T02:34:06;12.20;99.90
52675;DHT22;38569;52.722;6.440;2023-11-19T02:36:32;12.30;99.90
52675;DHT22;38569;52.722;6.440;2023-11-19T02:38:58;12.20;99.90
52675;DHT22;38569;52.722;6.440;2023-11-19T02:41:25;12.20;99.90
52675;DHT22;38569;52.722;6.440;2023-11-19T02:43:50;12.30;99.90
52675;DHT22;38569;52.722;6.440;2023-11-19T02:46:16;12.20;99.90
52675;DHT22;38569;52.722;6.440;2023-11-19T02:48:43;12.20;99.90
52675;DHT22;38569;52.722;6.440;2023-11-19T02:51:10;12.20;99.90
52675;DHT22;38569;52.722;6.440;2023-11-19T02:53:36;12.20;99.90
52675;DHT22;38569;52.722;6.440;2023-11-19T02:56:05;12.10;99.90
52675;DHT22;38569;52.722;6.440;2023-11-19T02:58:43;12.10;99.90
52675;DHT22;38569;52.722;6.440;2023-11-19T03:01:10;12.10;99.90
52675;DHT22;38569;52.722;6.440;2023-11-19T03:03:44;12.10;99.90
52675;DHT22;38569;52.722;6.440;2023-11-19T03:06:14;12.00;99.90
52675;DHT22;38569;52.722;6.440;2023-11-19T03:08:40;12.00;99.90
52675;DHT22;38569;52.722;6.440;2023-11-19T03:11:06;12.00;99.90
52675;DHT22;38569;52.722;6.440;2023-11-19T03:13:31;12.00;99.90
52675;DHT22;38569;52.722;6.440;2023-11-19T03:15:57;11.90;99.90
52675;DHT22;38569;52.722;6.440;2023-11-19T03:18:23;11.90;99.90
52675;DHT22;38569;52.722;6.440;2023-11-19T03:20:48;11.80;99.90
52675;DHT22;38569;52.722;6.440;2023-11-19T03:23:20;11.80;99.90
52675;DHT22;38569;52.722;6.440;2023-11-19T03:25:46;11.80;99.90
52675;DHT22;38569;52.722;6.440;2023-11-19T03:28:12;11.90;99.90
52675;DHT22;38569;52.722;6.440;2023-11-19T03:30:38;11.90;99.90
52675;DHT22;38569;52.722;6.440;2023-11-19T03:33:04;11.90;99.90
52675;DHT22;38569;52.722;6.440;2023-11-19T03:35:30;11.90;99.90
52675;DHT22;38569;52.722;6.440;2023-11-19T03:37:56;12.00;99.90
52675;DHT22;38569;52.722;6.440;2023-11-19T03:40:21;12.00;99.90
52675;DHT22;38569;52.722;6.440;2023-11-19T03:42:48;12.10;99.90
52675;DHT22;38569;52.722;6.440;2023-11-19T03:45:13;12.00;99.90
52675;DHT22;38569;52.722;6.440;2023-11-19T03:47:41;12.10;99.90
52675;DHT22;38569;52.722;6.440;2023-11-19T03:50:07;12.00;99.90
52675;DHT22;38569;52.722;6.440;2023-11-19T03:52:36;12.00;99.90
52675;DHT22;38569;52.722;6.440;2023-11-19T03:55:02;11.90;99.90
52675;DHT22;38569;52.722;6.440;2023-11-19T03:57:31;11.90;99.90
52675;DHT22;38569;52.722;6.440;2023-11-19T03:59:57;11.90;99.90
52675;DHT22;38569;52.722;6.440;2023-11-19T04:02:24;11.90;99.90
52675;DHT22;38569;52.722;6.440;2023-11-19T04:04:53;11.90;99.90
52675;DHT22;38569;52.722;6.440;2023-11-19T04:07:25;11.90;99.90
52675;DHT22;38569;52.722;6.440;2023-11-19T04:09:51;11.90;99.90
52675;DHT22;38569;52.722;6.440;2023-11-19T04:12:16;11.90;99.90
52675;DHT22;38569;52.722;6.440;2023-11-19T04:14:42;11.90;99.90
52675;DHT22;38569;52.722;6.440;2023-11-19T04:17:08;11.90;99.90
52675;DHT22;38569;52.722;6.440;2023-11-19T04:19:33;11.80;99.90
52675;DHT22;38569;52.722;6.440;2023-11-19T04:21:59;11.80;99.90
52675;DHT22;38569;52.722;6.440;2023-11-19T04:24:25;11.80;99.90
52675;DHT22;38569;52.722;6.440;2023-11-19T04:26:50;11.80;99.90
52675;DHT22;38569;52.722;6.440;2023-11-19T04:29:17;11.70;99.90
52675;DHT22;38569;52.722;6.440;2023-11-19T04:31:44;11.70;99.90
52675;DHT22;38569;52.722;6.440;2023-11-19T04:34:10;11.60;99.90
52675;DHT22;38569;52.722;6.440;2023-11-19T04:36:36;11.60;99.90
52675;DHT22;38569;52.722;6.440;2023-11-19T04:39:03;11.60;99.90
52675;DHT22;38569;52.722;6.440;2023-11-19T04:41:48;11.60;99.90
52675;DHT22;38569;52.722;6.440;2023-11-19T04:44:16;11.60;99.90
52675;DHT22;38569;52.722;6.440;2023-11-19T04:46:42;11.60;99.90
52675;DHT22;38569;52.722;6.440;2023-11-19T04:49:11;11.60;99.90
52675;DHT22;38569;52.722;6.440;2023-11-19T04:51:40;11.60;99.90
52675;DHT22;38569;52.722;6.440;2023-11-19T04:54:08;11.60;99.90
52675;DHT22;38569;52.722;6.440;2023-11-19T04:56:34;11.60;99.90
52675;DHT22;38569;52.722;6.440;2023-11-19T04:59:01;11.60;99.90
52675;DHT22;38569;52.722;6.440;2023-11-19T05:01:27;11.60;99.90
52675;DHT22;38569;52.722;6.440;2023-11-19T05:03:53;11.60;99.90
52675;DHT22;38569;52.722;6.440;2023-11-19T05:06:19;11.60;99.90
52675;DHT22;38569;52.722;6.440;2023-11-19T05:08:45;11.60;99.90
52675;DHT22;38569;52.722;6.440;2023-11-19T05:11:11;11.60;99.90
52675;DHT22;38569;52.722;6.440;2023-11-19T05:13:43;11.60;99.90
52675;DHT22;38569;52.722;6.440;2023-11-19T05:16:11;11.70;99.90
52675;DHT22;38569;52.722;6.440;2023-11-19T05:18:39;11.70;99.90
52675;DHT22;38569;52.722;6.440;2023-11-19T05:21:05;11.70;99.90
52675;DHT22;38569;52.722;6.440;2023-11-19T05:23:32;11.70;99.90
52675;DHT22;38569;52.722;6.440;2023-11-19T05:26:00;11.70;99.90
52675;DHT22;38569;52.722;6.440;2023-11-19T05:28:26;11.70;99.90
52675;DHT22;38569;52.722;6.440;2023-11-19T05:30:52;11.70;99.90
52675;DHT22;38569;52.722;6.440;2023-11-19T05:33:17;11.60;99.90
52675;DHT22;38569;52.722;6.440;2023-11-19T05:35:43;11.60;99.90
52675;DHT22;38569;52.722;6.440;2023-11-19T05:38:09;11.70;99.90
52675;DHT22;38569;52.722;6.440;2023-11-19T05:40:35;11.70;99.90
52675;DHT22;38569;52.722;6.440;2023-11-19T05:43:01;11.60;99.90
52675;DHT22;38569;52.722;6.440;2023-11-19T05:45:27;11.60;99.90
52675;DHT22;38569;52.722;6.440;2023-11-19T05:47:52;11.60;99.90
52675;DHT22;38569;52.722;6.440;2023-11-19T05:50:18;11.60;99.90
52675;DHT22;38569;52.722;6.440;2023-11-19T05:52:44;11.60;99.90
52675;DHT22;38569;52.722;6.440;2023-11-19T05:55:10;11.60;99.90
52675;DHT22;38569;52.722;6.440;2023-11-19T05:57:37;11.60;99.90
52675;DHT22;38569;52.722;6.440;2023-11-19T06:00:03;11.50;99.90
52675;DHT22;38569;52.722;6.440;2023-11-19T06:02:32;11.50;99.90
52675;DHT22;38569;52.722;6.440;2023-11-19T06:04:58;11.50;99.90
52675;DHT22;38569;52.722;6.440;2023-11-19T06:07:24;11.50;99.90
52675;DHT22;38569;52.722;6.440;2023-11-19T06:09:50;11.50;99.90
52675;DHT22;38569;52.722;6.440;2023-11-19T06:12:16;11.40;99.90
52675;DHT22;38569;52.722;6.440;2023-11-19T06:14:41;11.40;99.90
52675;DHT22;38569;52.722;6.440;2023-11-19T06:17:07;11.30;99.90
52675;DHT22;38569;52.722;6.440;2023-11-19T06:19:34;11.30;99.90
52675;DHT22;38569;52.722;6.440;2023-11-19T06:21:59;11.20;99.90
52675;DHT22;38569;52.722;6.440;2023-11-19T06:24:25;11.30;99.90
52675;DHT22;38569;52.722;6.440;2023-11-19T06:26:51;11.20;99.90
52675;DHT22;38569;52.722;6.440;2023-11-19T06:29:16;11.20;99.90
52675;DHT22;38569;52.722;6.440;2023-11-19T06:31:45;11.20;99.90
52675;DHT22;38569;52.722;6.440;2023-11-19T06:34:12;11.20;99.90
52675;DHT22;38569;52.722;6.440;2023-11-19T06:36:37;11.20;99.90
52675;DHT22;38569;52.722;6.440;2023-11-19T06:39:04;11.20;99.90
52675;DHT22;38569;52.722;6.440;2023-11-19T06:41:31;11.10;99.90
52675;DHT22;38569;52.722;6.440;2023-11-19T06:43:58;11.10;99.90
52675;DHT22;38569;52.722;6.440;2023-11-19T06:46:25;11.10;99.90
52675;DHT22;38569;52.722;6.440;2023-11-19T06:48:51;11.10;99.90
52675;DHT22;38569;52.722;6.440;2023-11-19T06:51:16;11.10;99.90
52675;DHT22;38569;52.722;6.440;2023-11-19T06:53:42;11.20;99.90
52675;DHT22;38569;52.722;6.440;2023-11-19T06:56:23;11.20;99.90
52675;DHT22;38569;52.722;6.440;2023-11-19T06:58:50;11.20;99.90
52675;DHT22;38569;52.722;6.440;2023-11-19T07:01:16;11.20;99.90
52675;DHT22;38569;52.722;6.440;2023-11-19T07:03:46;11.20;99.90
52675;DHT22;38569;52.722;6.440;2023-11-19T07:06:12;11.30;99.90
52675;DHT22;38569;52.722;6.440;2023-11-19T07:08:39;11.30;99.90
52675;DHT22;38569;52.722;6.440;2023-11-19T07:11:05;11.30;99.90
52675;DHT22;38569;52.722;6.440;2023-11-19T07:13:30;11.30;99.90
52675;DHT22;38569;52.722;6.440;2023-11-19T07:15:56;11.30;99.90
52675;DHT22;38569;52.722;6.440;2023-11-19T07:18:22;11.30;99.90
52675;DHT22;38569;52.722;6.440;2023-11-19T07:20:49;11.30;99.90
52675;DHT22;38569;52.722;6.440;2023-11-19T07:23:14;11.30;99.90
52675;DHT22;38569;52.722;6.440;2023-11-19T07:25:44;11.30;99.90
52675;DHT22;38569;52.722;6.440;2023-11-19T07:28:13;11.30;99.90
52675;DHT22;38569;52.722;6.440;2023-11-19T07:30:38;11.30;99.90
52675;DHT22;38569;52.722;6.440;2023-11-19T07:33:04;11.20;99.90
52675;DHT22;38569;52.722;6.440;2023-11-19T07:35:31;11.20;99.90
52675;DHT22;38569;52.722;6.440;2023-11-19T07:37:57;11.20;99.90
52675;DHT22;38569;52.722;6.440;2023-11-19T07:40:23;11.20;99.90
52675;DHT22;38569;52.722;6.440;2023-11-19T07:42:49;11.20;99.90
52675;DHT22;38569;52.722;6.440;2023-11-19T07:45:16;11.30;99.90
52675;DHT22;38569;52.722;6.440;2023-11-19T07:47:42;11.30;99.90
52675;DHT22;38569;52.722;6.440;2023-11-19T07:50:10;11.30;99.90
52675;DHT22;38569;52.722;6.440;2023-11-19T07:52:37;11.30;99.90
52675;DHT22;38569;52.722;6.440;2023-11-19T07:55:03;11.40;99.90
52675;DHT22;38569;52.722;6.440;2023-11-19T07:57:28;11.40;99.90
52675;DHT22;38569;52.722;6.440;2023-11-19T07:59:59;11.40;99.90
52675;DHT22;38569;52.722;6.440;2023-11-19T08:02:26;11.40;99.90
52675;DHT22;38569;52.722;6.440;2023-11-19T08:04:52;11.40;99.90
52675;DHT22;38569;52.722;6.440;2023-11-19T08:07:20;11.40;99.90
52675;DHT22;38569;52.722;6.440;2023-11-19T08:09:46;11.50;99.90
52675;DHT22;38569;52.722;6.440;2023-11-19T08:12:12;11.40;99.90
52675;DHT22;38569;52.722;6.440;2023-11-19T08:14:40;11.50;99.90
52675;DHT22;38569;52.722;6.440;2023-11-19T08:17:08;11.50;99.90
52675;DHT22;38569;52.722;6.440;2023-11-19T08:19:34;11.50;99.90
52675;DHT22;38569;52.722;6.440;2023-11-19T08:22:00;11.50;99.90
52675;DHT22;38569;52.722;6.440;2023-11-19T08:24:25;11.50;99.90
52675;DHT22;38569;52.722;6.440;2023-11-19T08:26:51;11.50;99.90
52675;DHT22;38569;52.722;6.440;2023-11-19T08:29:17;11.50;99.90
52675;DHT22;38569;52.722;6.440;2023-11-19T08:31:42;11.30;99.90
52675;DHT22;38569;52.722;6.440;2023-11-19T08:34:08;11.30;99.90
52675;DHT22;38569;52.722;6.440;2023-11-19T08:36:35;11.20;99.90
52675;DHT22;38569;52.722;6.440;2023-11-19T08:39:00;11.20;99.90
52675;DHT22;38569;52.722;6.440;2023-11-19T08:41:26;11.20;99.90
52675;DHT22;38569;52.722;6.440;2023-11-19T08:43:52;11.20;99.90
52675;DHT22;38569;52.722;6.440;2023-11-19T08:46:18;11.20;99.90
52675;DHT22;38569;52.722;6.440;2023-11-19T08:48:44;11.20;99.90
52675;DHT22;38569;52.722;6.440;2023-11-19T08:51:10;11.20;99.90
52675;DHT22;38569;52.722;6.440;2023-11-19T08:53:35;11.30;99.90
52675;DHT22;38569;52.722;6.440;2023-11-19T08:56:01;11.30;99.90
52675;DHT22;38569;52.722;6.440;2023-11-19T08:58:28;11.40;99.90
52675;DHT22;38569;52.722;6.440;2023-11-19T09:00:54;11.50;99.90
52675;DHT22;38569;52.722;6.440;2023-11-19T09:03:20;11.60;99.90
52675;DHT22;38569;52.722;6.440;2023-11-19T09:05:46;11.60;99.90
52675;DHT22;38569;52.722;6.440;2023-11-19T09:08:12;11.60;99.90
52675;DHT22;38569;52.722;6.440;2023-11-19T09:10:38;11.60;99.90
52675;DHT22;38569;52.722;6.440;2023-11-19T09:13:03;11.70;99.90
52675;DHT22;38569;52.722;6.440;2023-11-19T09:15:29;11.70;99.90
52675;DHT22;38569;52.722;6.440;2023-11-19T09:17:55;11.80;99.90
52675;DHT22;38569;52.722;6.440;2023-11-19T09:20:21;12.00;99.90
52675;DHT22;38569;52.722;6.440;2023-11-19T09:22:48;12.10;99.90
52675;DHT22;38569;52.722;6.440;2023-11-19T09:25:14;12.10;99.90
52675;DHT22;38569;52.722;6.440;2023-11-19T09:27:43;12.30;99.90
52675;DHT22;38569;52.722;6.440;2023-11-19T09:30:10;12.40;99.90
52675;DHT22;38569;52.722;6.440;2023-11-19T09:32:35;12.40;99.90
52675;DHT22;38569;52.722;6.440;2023-11-19T09:35:03;12.30;99.90
52675;DHT22;38569;52.722;6.440;2023-11-19T09:37:29;12.20;99.90
52675;DHT22;38569;52.722;6.440;2023-11-19T09:39:55;12.20;99.90
52675;DHT22;38569;52.722;6.440;2023-11-19T09:42:20;12.20;99.90
52675;DHT22;38569;52.722;6.440;2023-11-19T09:44:47;12.20;99.90
52675;DHT22;38569;52.722;6.440;2023-11-19T09:47:14;12.20;99.90
52675;DHT22;38569;52.722;6.440;2023-11-19T09:49:42;12.20;99.90
52675;DHT22;38569;52.722;6.440;2023-11-19T09:52:08;12.20;99.90
52675;DHT22;38569;52.722;6.440;2023-11-19T09:54:34;12.10;99.90
52675;DHT22;38569;52.722;6.440;2023-11-19T09:57:02;12.10;99.90
52675;DHT22;38569;52.722;6.440;2023-11-19T09:59:33;12.10;99.90
52675;DHT22;38569;52.722;6.440;2023-11-19T10:01:59;12.00;99.90
52675;DHT22;38569;52.722;6.440;2023-11-19T10:04:25;12.00;99.90
52675;DHT22;38569;52.722;6.440;2023-11-19T10:06:54;12.00;99.90
52675;DHT22;38569;52.722;6.440;2023-11-19T10:09:20;12.00;99.90
52675;DHT22;38569;52.722;6.440;2023-11-19T10:11:46;11.90;99.90
52675;DHT22;38569;52.722;6.440;2023-11-19T10:14:13;12.00;99.90
52675;DHT22;38569;52.722;6.440;2023-11-19T10:16:40;12.00;99.90
52675;DHT22;38569;52.722;6.440;2023-11-19T10:19:08;12.00;99.90
52675;DHT22;38569;52.722;6.440;2023-11-19T10:21:38;11.90;99.90
52675;DHT22;38569;52.722;6.440;2023-11-19T10:24:04;11.90;99.90
52675;DHT22;38569;52.722;6.440;2023-11-19T10:26:30;11.90;99.90
52675;DHT22;38569;52.722;6.440;2023-11-19T10:28:56;11.90;99.90
52675;DHT22;38569;52.722;6.440;2023-11-19T10:31:22;11.90;99.90
52675;DHT22;38569;52.722;6.440;2023-11-19T10:33:50;11.90;99.90
52675;DHT22;38569;52.722;6.440;2023-11-19T10:36:17;12.00;99.90
52675;DHT22;38569;52.722;6.440;2023-11-19T10:38:53;12.00;99.90
52675;DHT22;38569;52.722;6.440;2023-11-19T10:41:30;12.10;99.90
52675;DHT22;38569;52.722;6.440;2023-11-19T10:43:56;12.20;99.90
52675;DHT22;38569;52.722;6.440;2023-11-19T10:46:22;12.20;99.90
52675;DHT22;38569;52.722;6.440;2023-11-19T10:48:49;12.20;99.90
52675;DHT22;38569;52.722;6.440;2023-11-19T10:51:19;12.30;99.90
52675;DHT22;38569;52.722;6.440;2023-11-19T10:53:49;12.30;99.90
52675;DHT22;38569;52.722;6.440;2023-11-19T10:56:16;12.30;99.90
52675;DHT22;38569;52.722;6.440;2023-11-19T10:58:45;12.30;99.90
52675;DHT22;38569;52.722;6.440;2023-11-19T11:01:16;12.40;99.90
52675;DHT22;38569;52.722;6.440;2023-11-19T11:03:44;12.40;99.90
52675;DHT22;38569;52.722;6.440;2023-11-19T11:06:13;12.30;99.90
52675;DHT22;38569;52.722;6.440;2023-11-19T11:08:39;12.10;99.90
52675;DHT22;38569;52.722;6.440;2023-11-19T11:11:06;12.10;99.90
52675;DHT22;38569;52.722;6.440;2023-11-19T11:13:33;12.10;99.90
52675;DHT22;38569;52.722;6.440;2023-11-19T11:15:59;12.10;99.90
52675;DHT22;38569;52.722;6.440;2023-11-19T11:18:26;12.10;99.90
52675;DHT22;38569;52.722;6.440;2023-11-19T11:21:13;12.00;99.90
52675;DHT22;38569;52.722;6.440;2023-11-19T11:38:14;12.00;99.90
52675;DHT22;38569;52.722;6.440;2023-11-19T11:40:40;11.90;99.90
52675;DHT22;38569;52.722;6.440;2023-11-19T11:49:08;11.50;99.90
52675;DHT22;38569;52.722;6.440;2023-11-19T11:54:11;11.30;99.90
52675;DHT22;38569;52.722;6.440;2023-11-19T11:56:37;11.30;99.90
52675;DHT22;38569;52.722;6.440;2023-11-19T11:59:07;11.40;99.90
52675;DHT22;38569;52.722;6.440;2023-11-19T12:01:33;11.40;99.90
52675;DHT22;38569;52.722;6.440;2023-11-19T12:04:00;11.50;99.90
52675;DHT22;38569;52.722;6.440;2023-11-19T12:06:27;11.60;99.90
52675;DHT22;38569;52.722;6.440;2023-11-19T12:08:53;11.70;99.90
52675;DHT22;38569;52.722;6.440;2023-11-19T12:11:24;11.70;99.90
52675;DHT22;38569;52.722;6.440;2023-11-19T12:13:54;11.90;99.90
52675;DHT22;38569;52.722;6.440;2023-11-19T12:16:28;12.30;99.90
52675;DHT22;38569;52.722;6.440;2023-11-19T12:18:54;12.40;99.90
52675;DHT22;38569;52.722;6.440;2023-11-19T12:21:31;12.50;99.90
52675;DHT22;38569;52.722;6.440;2023-11-19T12:23:58;12.50;99.90
52675;DHT22;38569;52.722;6.440;2023-11-19T12:26:33;12.60;99.90
52675;DHT22;38569;52.722;6.440;2023-11-19T12:29:00;12.70;99.90
52675;DHT22;38569;52.722;6.440;2023-11-19T12:31:26;12.60;99.90
52675;DHT22;38569;52.722;6.440;2023-11-19T12:33:52;12.50;99.90
52675;DHT22;38569;52.722;6.440;2023-11-19T12:36:19;12.30;99.90
52675;DHT22;38569;52.722;6.440;2023-11-19T12:38:46;12.20;99.90
52675;DHT22;38569;52.722;6.440;2023-11-19T12:41:11;12.10;99.90
52675;DHT22;38569;52.722;6.440;2023-11-19T12:43:39;12.10;99.90
52675;DHT22;38569;52.722;6.440;2023-11-19T12:46:20;12.00;99.90
52675;DHT22;38569;52.722;6.440;2023-11-19T12:48:50;11.90;99.90
52675;DHT22;38569;52.722;6.440;2023-11-19T12:51:17;11.90;99.90
52675;DHT22;38569;52.722;6.440;2023-11-19T12:53:52;11.90;99.90
52675;DHT22;38569;52.722;6.440;2023-11-19T12:56:23;11.90;99.90
52675;DHT22;38569;52.722;6.440;2023-11-19T12:58:49;11.80;99.90
52675;DHT22;38569;52.722;6.440;2023-11-19T13:01:19;11.80;99.90
52675;DHT22;38569;52.722;6.440;2023-11-19T13:03:46;11.90;99.90
52675;DHT22;38569;52.722;6.440;2023-11-19T13:06:13;11.90;99.90
52675;DHT22;38569;52.722;6.440;2023-11-19T13:08:49;11.90;99.90
52675;DHT22;38569;52.722;6.440;2023-11-19T13:11:34;11.80;99.90
52675;DHT22;38569;52.722;6.440;2023-11-19T13:14:02;11.90;99.90
52675;DHT22;38569;52.722;6.440;2023-11-19T13:16:36;11.90;99.90
52675;DHT22;38569;52.722;6.440;2023-11-19T13:19:02;11.90;99.90
52675;DHT22;38569;52.722;6.440;2023-11-19T13:21:29;11.80;99.90
52675;DHT22;38569;52.722;6.440;2023-11-19T13:23:57;11.80;99.90
52675;DHT22;38569;52.722;6.440;2023-11-19T13:26:23;11.80;99.90
52675;DHT22;38569;52.722;6.440;2023-11-19T13:28:49;11.70;99.90
52675;DHT22;38569;52.722;6.440;2023-11-19T13:31:15;11.60;99.90
52675;DHT22;38569;52.722;6.440;2023-11-19T13:33:41;11.50;99.90
52675;DHT22;38569;52.722;6.440;2023-11-19T13:36:07;11.40;99.90
52675;DHT22;38569;52.722;6.440;2023-11-19T13:38:36;11.30;99.90
52675;DHT22;38569;52.722;6.440;2023-11-19T13:41:03;11.30;99.90
52675;DHT22;38569;52.722;6.440;2023-11-19T13:43:30;11.20;99.90
52675;DHT22;38569;52.722;6.440;2023-11-19T13:45:56;11.20;99.90
52675;DHT22;38569;52.722;6.440;2023-11-19T13:48:24;11.10;99.90
52675;DHT22;38569;52.722;6.440;2023-11-19T13:50:50;11.10;99.90
52675;DHT22;38569;52.722;6.440;2023-11-19T13:53:16;11.10;99.90
52675;DHT22;38569;52.722;6.440;2023-11-19T13:55:42;11.10;99.90
52675;DHT22;38569;52.722;6.440;2023-11-19T13:58:08;11.20;99.90
52675;DHT22;38569;52.722;6.440;2023-11-19T14:00:34;11.20;99.90
52675;DHT22;38569;52.722;6.440;2023-11-19T14:03:00;11.20;99.90
52675;DHT22;38569;52.722;6.440;2023-11-19T14:05:25;11.20;99.90
52675;DHT22;38569;52.722;6.440;2023-11-19T14:07:52;11.20;99.90
52675;DHT22;38569;52.722;6.440;2023-11-19T14:10:19;11.20;99.90
52675;DHT22;38569;52.722;6.440;2023-11-19T14:12:45;11.20;99.90
52675;DHT22;38569;52.722;6.440;2023-11-19T14:15:11;11.10;99.90
52675;DHT22;38569;52.722;6.440;2023-11-19T14:17:40;11.10;99.90
52675;DHT22;38569;52.722;6.440;2023-11-19T14:20:06;11.10;99.90
52675;DHT22;38569;52.722;6.440;2023-11-19T14:22:43;11.00;99.90
52675;DHT22;38569;52.722;6.440;2023-11-19T14:25:10;11.10;99.90
52675;DHT22;38569;52.722;6.440;2023-11-19T14:27:37;11.00;99.90
52675;DHT22;38569;52.722;6.440;2023-11-19T14:30:05;11.00;99.90
52675;DHT22;38569;52.722;6.440;2023-11-19T14:32:31;11.00;99.90
52675;DHT22;38569;52.722;6.440;2023-11-19T14:34:57;11.00;99.90
52675;DHT22;38569;52.722;6.440;2023-11-19T14:37:23;11.00;99.90
52675;DHT22;38569;52.722;6.440;2023-11-19T14:39:48;11.00;99.90
52675;DHT22;38569;52.722;6.440;2023-11-19T14:42:16;11.00;99.90
52675;DHT22;38569;52.722;6.440;2023-11-19T14:44:42;11.00;99.90
52675;DHT22;38569;52.722;6.440;2023-11-19T14:47:08;11.00;99.90
52675;DHT22;38569;52.722;6.440;2023-11-19T14:49:37;11.00;99.90
52675;DHT22;38569;52.722;6.440;2023-11-19T14:52:04;11.00;99.90
52675;DHT22;38569;52.722;6.440;2023-11-19T14:54:30;11.00;99.90
52675;DHT22;38569;52.722;6.440;2023-11-19T14:56:56;11.00;99.90
52675;DHT22;38569;52.722;6.440;2023-11-19T14:59:22;11.00;99.90
52675;DHT22;38569;52.722;6.440;2023-11-19T15:01:47;11.00;99.90
52675;DHT22;38569;52.722;6.440;2023-11-19T15:04:13;11.00;99.90
52675;DHT22;38569;52.722;6.440;2023-11-19T15:06:39;11.00;99.90
52675;DHT22;38569;52.722;6.440;2023-11-19T15:09:05;11.00;99.90
52675;DHT22;38569;52.722;6.440;2023-11-19T15:11:33;11.00;99.90
52675;DHT22;38569;52.722;6.440;2023-11-19T15:13:58;11.00;99.90
52675;DHT22;38569;52.722;6.440;2023-11-19T15:16:25;11.00;99.90
52675;DHT22;38569;52.722;6.440;2023-11-19T15:18:58;11.00;99.90
52675;DHT22;38569;52.722;6.440;2023-11-19T15:21:29;11.00;99.90
52675;DHT22;38569;52.722;6.440;2023-11-19T15:23:55;11.10;99.90
52675;DHT22;38569;52.722;6.440;2023-11-19T15:26:22;11.00;99.90
52675;DHT22;38569;52.722;6.440;2023-11-19T15:28:47;11.00;99.90
52675;DHT22;38569;52.722;6.440;2023-11-19T15:31:13;11.00;99.90
52675;DHT22;38569;52.722;6.440;2023-11-19T15:33:42;10.90;99.90
52675;DHT22;38569;52.722;6.440;2023-11-19T15:36:08;10.90;99.90
52675;DHT22;38569;52.722;6.440;2023-11-19T15:38:34;10.90;99.90
52675;DHT22;38569;52.722;6.440;2023-11-19T15:41:00;10.90;99.90
52675;DHT22;38569;52.722;6.440;2023-11-19T15:43:25;10.90;99.90
52675;DHT22;38569;52.722;6.440;2023-11-19T15:45:51;10.90;99.90
52675;DHT22;38569;52.722;6.440;2023-11-19T15:48:17;10.90;99.90
52675;DHT22;38569;52.722;6.440;2023-11-19T15:50:44;10.80;99.90
52675;DHT22;38569;52.722;6.440;2023-11-19T15:53:10;10.80;99.90